createdAt,value
2018-01-08T00:00:54.062Z,98.05
2018-01-08T00:02:47.280Z,98.52
2018-01-08T00:03:47.189Z,98.33
2018-01-08T00:05:40.440Z,99.00
2018-01-08T00:06:40.363Z,98.62
2018-01-08T00:08:33.628Z,98.81
2018-01-08T00:09:33.534Z,98.24
2018-01-08T00:11:27.779Z,98.52
2018-01-08T00:12:27.708Z,98.52
2018-01-08T00:14:20.960Z,98.90
2018-01-08T00:15:20.862Z,98.90
2018-01-08T00:17:14.110Z,98.62
2018-01-08T00:18:14.034Z,99.00
2018-01-08T00:20:07.458Z,98.71
2018-01-08T00:21:07.195Z,98.90
2018-01-08T00:23:00.572Z,99.19
2018-01-08T00:24:00.364Z,98.52
2018-01-08T00:25:53.726Z,99.09
2018-01-08T00:26:53.528Z,98.81
2018-01-08T00:28:46.798Z,98.52
2018-01-08T00:29:46.697Z,99.19
2018-01-08T00:31:39.948Z,99.00
2018-01-08T00:32:39.870Z,98.71
2018-01-08T00:34:33.137Z,98.81
2018-01-08T00:35:33.042Z,98.90
2018-01-08T00:37:26.288Z,98.62
2018-01-08T00:38:26.214Z,98.52
2018-01-08T00:40:19.472Z,98.81
2018-01-08T00:41:19.376Z,98.33
2018-01-08T00:43:12.649Z,98.33
2018-01-08T00:44:12.549Z,98.52
2018-01-08T00:46:05.793Z,98.33
2018-01-08T00:47:05.719Z,98.52
2018-01-08T00:48:59.094Z,98.05
2018-01-08T00:49:58.887Z,98.05
2018-01-08T00:51:52.136Z,97.86
2018-01-08T00:52:52.060Z,97.67
2018-01-08T00:54:45.396Z,97.96
2018-01-08T00:55:45.298Z,97.20
2018-01-08T00:57:38.555Z,97.86
2018-01-08T00:58:38.469Z,97.67
2018-01-08T01:00:31.849Z,97.58
2018-01-08T01:01:31.643Z,97.67
2018-01-08T01:03:24.895Z,98.14
2018-01-08T01:04:24.800Z,97.49
2018-01-08T01:06:18.158Z,97.67
2018-01-08T01:07:17.972Z,97.67
2018-01-08T01:09:11.247Z,97.58
2018-01-08T01:10:11.146Z,97.67
2018-01-08T01:12:04.390Z,97.86
2018-01-08T01:13:04.314Z,97.58
2018-01-08T01:14:57.570Z,97.58
2018-01-08T01:15:57.474Z,97.58
2018-01-08T01:17:50.721Z,97.58
2018-01-08T01:18:50.649Z,97.39
2018-01-08T01:20:43.912Z,97.86
2018-01-08T01:21:43.816Z,97.30
2018-01-08T01:23:37.083Z,97.30
2018-01-08T01:24:36.984Z,97.77
2018-01-08T01:26:30.232Z,97.39
2018-01-08T01:27:30.163Z,97.77
2018-01-08T01:29:23.425Z,97.20
2018-01-08T01:30:23.332Z,97.58
2018-01-08T01:32:16.577Z,97.30
2018-01-08T01:33:16.501Z,97.30
2018-01-08T01:35:10.768Z,96.73
2018-01-08T01:36:10.673Z,96.73
2018-01-08T01:38:03.919Z,96.45
2018-01-08T01:39:03.843Z,96.73
2018-01-08T01:40:58.220Z,97.11
2018-01-08T01:41:58.013Z,96.64
2018-01-08T01:43:51.390Z,96.83
2018-01-08T01:44:51.194Z,96.92
2018-01-08T01:46:44.458Z,96.45
2018-01-08T01:47:44.381Z,96.73
2018-01-08T01:49:37.636Z,96.64
2018-01-08T01:50:37.542Z,96.64
2018-01-08T01:52:30.788Z,96.45
2018-01-08T01:53:30.715Z,96.73
2018-01-08T01:55:23.980Z,96.73
2018-01-08T01:56:23.889Z,96.45
2018-01-08T01:58:17.132Z,96.35
2018-01-08T01:59:17.060Z,96.07
2018-01-08T02:01:10.324Z,96.35
2018-01-08T02:02:10.229Z,96.54
2018-01-08T02:04:03.498Z,95.97
2018-01-08T02:05:03.403Z,95.97
2018-01-08T02:06:56.657Z,96.54
2018-01-08T02:07:56.578Z,96.07
2018-01-08T02:09:49.841Z,96.16
2018-01-08T02:10:49.746Z,96.54
2018-01-08T02:12:42.995Z,95.97
2018-01-08T02:13:42.919Z,95.78
2018-01-08T02:15:36.299Z,96.07
2018-01-08T02:16:36.092Z,95.97
2018-01-08T02:18:29.453Z,95.97
2018-01-08T02:19:29.270Z,95.97
2018-01-08T02:21:22.531Z,95.69
2018-01-08T02:22:22.436Z,95.97
2018-01-08T02:24:15.707Z,95.97
2018-01-08T02:25:15.610Z,96.07
2018-01-08T02:27:08.970Z,95.78
2018-01-08T02:28:08.783Z,95.59
2018-01-08T02:30:02.040Z,95.31
2018-01-08T02:31:01.945Z,95.50
2018-01-08T02:32:55.216Z,95.21
2018-01-08T02:33:55.141Z,95.69
2018-01-08T02:35:48.405Z,95.97
2018-01-08T02:36:48.312Z,95.40
2018-01-08T02:38:42.563Z,95.69
2018-01-08T02:39:42.484Z,95.59
2018-01-08T02:41:35.750Z,95.59
2018-01-08T02:42:35.658Z,95.97
2018-01-08T02:44:28.923Z,95.88
2018-01-08T02:45:28.833Z,95.50
2018-01-08T02:47:22.077Z,95.12
2018-01-08T02:48:22.019Z,95.21
2018-01-08T02:50:15.260Z,95.50
2018-01-08T02:51:15.167Z,95.40
2018-01-08T02:53:08.417Z,96.16
2018-01-08T02:54:08.342Z,95.69
2018-01-08T02:56:01.607Z,94.93
2018-01-08T02:57:01.514Z,95.40
2018-01-08T02:58:54.762Z,95.69
2018-01-08T02:59:54.688Z,95.69
2018-01-08T03:01:47.952Z,95.40
2018-01-08T03:02:47.860Z,95.59
2018-01-08T03:04:41.127Z,95.50
2018-01-08T03:05:41.034Z,95.78
2018-01-08T03:07:34.284Z,95.69
2018-01-08T03:08:34.209Z,95.50
2018-01-08T03:10:27.590Z,95.88
2018-01-08T03:11:27.381Z,95.21
2018-01-08T03:13:20.742Z,96.45
2018-01-08T03:14:20.554Z,95.88
2018-01-08T03:16:13.933Z,95.50
2018-01-08T03:17:13.727Z,95.69
2018-01-08T03:19:06.976Z,95.69
2018-01-08T03:20:06.900Z,95.78
2018-01-08T03:22:00.272Z,95.88
2018-01-08T03:23:00.073Z,95.59
2018-01-08T03:24:53.394Z,95.69
2018-01-08T03:25:53.300Z,95.69
2018-01-08T03:27:47.547Z,95.50
2018-01-08T03:28:47.472Z,95.03
2018-01-08T03:30:40.738Z,95.03
2018-01-08T03:31:40.642Z,95.31
2018-01-08T03:33:33.896Z,95.31
2018-01-08T03:34:33.818Z,95.50
2018-01-08T03:36:27.089Z,95.21
2018-01-08T03:37:26.990Z,95.21
2018-01-08T03:39:20.250Z,94.93
2018-01-08T03:40:20.171Z,94.93
2018-01-08T03:42:13.437Z,95.21
2018-01-08T03:43:13.343Z,94.93
2018-01-08T03:45:06.609Z,94.74
2018-01-08T03:46:06.518Z,95.12
2018-01-08T03:47:59.766Z,94.74
2018-01-08T03:48:59.689Z,95.31
2018-01-08T03:50:53.067Z,94.84
2018-01-08T03:51:52.860Z,94.93
2018-01-08T03:53:46.108Z,95.03
2018-01-08T03:54:46.029Z,95.21
2018-01-08T03:56:39.392Z,95.03
2018-01-08T03:57:39.299Z,94.84
2018-01-08T03:59:32.541Z,94.46
2018-01-08T04:00:32.470Z,95.12
2018-01-08T04:02:25.733Z,95.21
2018-01-08T04:03:25.639Z,94.93
2018-01-08T04:05:18.909Z,94.37
2018-01-08T04:06:18.813Z,94.93
2018-01-08T04:08:12.062Z,94.56
2018-01-08T04:09:11.988Z,94.93
2018-01-08T04:11:05.363Z,94.56
2018-01-08T04:12:05.160Z,94.56
2018-01-08T04:13:58.519Z,94.08
2018-01-08T04:14:58.331Z,94.37
2018-01-08T04:16:51.595Z,94.08
2018-01-08T04:17:51.501Z,94.27
2018-01-08T04:19:44.755Z,94.08
2018-01-08T04:20:44.679Z,93.99
2018-01-08T04:22:37.944Z,94.08
2018-01-08T04:23:37.851Z,94.37
2018-01-08T04:25:31.117Z,94.37
2018-01-08T04:26:31.027Z,93.80
2018-01-08T04:28:24.273Z,93.13
2018-01-08T04:29:24.198Z,93.04
2018-01-08T04:31:17.577Z,93.61
2018-01-08T04:32:17.369Z,93.51
2018-01-08T04:34:10.616Z,93.42
2018-01-08T04:35:10.539Z,93.51
2018-01-08T04:37:03.999Z,93.32
2018-01-08T04:38:03.906Z,93.32
2018-01-08T04:39:57.145Z,93.32
2018-01-08T04:40:57.070Z,93.51
2018-01-08T04:42:50.334Z,93.51
2018-01-08T04:43:50.242Z,93.13
2018-01-08T04:45:43.506Z,93.51
2018-01-08T04:46:43.412Z,93.51
2018-01-08T04:48:36.772Z,93.04
2018-01-08T04:49:36.590Z,93.04
2018-01-08T04:51:29.857Z,93.13
2018-01-08T04:52:29.762Z,92.94
2018-01-08T04:54:23.013Z,92.94
2018-01-08T04:55:22.936Z,93.13
2018-01-08T04:57:16.316Z,93.09
2018-01-08T04:58:16.112Z,93.37
2018-01-08T05:00:09.493Z,93.09
2018-01-08T05:01:09.303Z,93.47
2018-01-08T05:03:02.575Z,92.90
2018-01-08T05:04:02.485Z,92.80
2018-01-08T05:05:55.755Z,92.80
2018-01-08T05:06:55.658Z,92.85
2018-01-08T05:08:49.018Z,92.85
2018-01-08T05:09:48.834Z,93.13
2018-01-08T05:11:42.096Z,93.04
2018-01-08T05:12:42.003Z,93.23
2018-01-08T05:14:36.364Z,93.23
2018-01-08T05:15:36.174Z,93.56
2018-01-08T05:17:29.438Z,93.18
2018-01-08T05:18:29.345Z,92.71
2018-01-08T05:20:22.731Z,93.28
2018-01-08T05:21:22.514Z,92.71
2018-01-08T05:23:15.758Z,93.37
2018-01-08T05:24:15.685Z,93.47
2018-01-08T05:26:09.066Z,93.28
2018-01-08T05:27:08.863Z,92.90
2018-01-08T05:29:02.104Z,93.56
2018-01-08T05:30:02.031Z,93.37
2018-01-08T05:31:55.298Z,93.47
2018-01-08T05:32:55.205Z,93.18
2018-01-08T05:34:48.448Z,93.56
2018-01-08T05:35:48.378Z,93.56
2018-01-08T05:37:41.644Z,93.56
2018-01-08T05:38:41.553Z,93.18
2018-01-08T05:40:34.823Z,93.09
2018-01-08T05:41:34.723Z,93.85
2018-01-08T05:43:27.975Z,93.56
2018-01-08T05:44:27.898Z,93.47
2018-01-08T05:46:21.165Z,93.66
2018-01-08T05:47:21.072Z,93.37
2018-01-08T05:49:14.432Z,93.37
2018-01-08T05:50:14.301Z,94.04
2018-01-08T05:52:07.569Z,93.56
2018-01-08T05:53:07.486Z,93.66
2018-01-08T05:55:00.723Z,94.32
2018-01-08T05:56:00.644Z,93.94
2018-01-08T05:57:53.918Z,94.23
2018-01-08T05:58:53.820Z,94.04
2018-01-08T06:00:47.207Z,93.94
2018-01-08T06:01:46.995Z,94.51
2018-01-08T06:03:40.242Z,94.13
2018-01-08T06:04:40.170Z,94.32
2018-01-08T06:06:33.550Z,94.32
2018-01-08T06:07:33.344Z,94.13
2018-01-08T06:09:26.581Z,94.04
2018-01-08T06:10:26.504Z,94.51
2018-01-08T06:12:19.771Z,94.51
2018-01-08T06:13:19.677Z,94.51
2018-01-08T06:15:12.925Z,94.51
2018-01-08T06:16:12.849Z,94.70
2018-01-08T06:18:06.119Z,94.70
2018-01-08T06:19:06.026Z,94.04
2018-01-08T06:20:59.294Z,94.51
2018-01-08T06:21:59.198Z,94.60
2018-01-08T06:23:52.461Z,94.46
2018-01-08T06:24:52.373Z,94.84
2018-01-08T06:26:45.754Z,94.18
2018-01-08T06:27:45.559Z,94.56
2018-01-08T06:29:38.918Z,94.42
2018-01-08T06:30:38.728Z,94.74
2018-01-08T06:32:31.988Z,94.46
2018-01-08T06:33:31.895Z,95.03
2018-01-08T06:35:26.143Z,94.74
2018-01-08T06:36:26.066Z,94.46
2018-01-08T06:38:19.448Z,95.31
2018-01-08T06:39:19.299Z,95.03
2018-01-08T06:41:12.677Z,94.74
2018-01-08T06:42:12.470Z,95.21
2018-01-08T06:44:05.721Z,94.74
2018-01-08T06:45:05.643Z,94.93
2018-01-08T06:46:58.914Z,95.21
2018-01-08T06:47:58.819Z,95.21
2018-01-08T06:49:53.110Z,95.40
2018-01-08T06:50:52.990Z,95.69
2018-01-08T06:52:46.264Z,95.88
2018-01-08T06:53:46.162Z,95.69
2018-01-08T06:55:40.411Z,94.93
2018-01-08T06:56:40.333Z,95.50
2018-01-08T06:58:33.713Z,95.97
2018-01-08T06:59:33.504Z,95.21
2018-01-08T07:01:26.770Z,95.69
2018-01-08T07:02:26.677Z,95.78
2018-01-08T07:04:20.035Z,95.88
2018-01-08T07:05:19.850Z,95.50
2018-01-08T07:07:13.229Z,95.69
2018-01-08T07:08:13.020Z,95.40
2018-01-08T07:10:06.277Z,95.69
2018-01-08T07:11:06.185Z,95.59
2018-01-08T07:12:59.460Z,95.69
2018-01-08T07:13:59.358Z,95.21
2018-01-08T07:15:52.607Z,95.69
2018-01-08T07:16:52.531Z,95.78
2018-01-08T07:18:45.798Z,95.88
2018-01-08T07:19:45.701Z,95.50
2018-01-08T07:21:38.966Z,94.93
2018-01-08T07:22:38.874Z,95.59
2018-01-08T07:24:32.234Z,95.78
2018-01-08T07:25:32.048Z,95.97
2018-01-08T07:27:25.426Z,95.78
2018-01-08T07:28:25.298Z,95.88
2018-01-08T07:30:18.567Z,95.59
2018-01-08T07:31:18.473Z,95.69
2018-01-08T07:33:11.738Z,95.69
2018-01-08T07:34:11.643Z,95.97
2018-01-08T07:36:05.003Z,95.97
2018-01-08T07:37:04.815Z,95.78
2018-01-08T07:38:58.193Z,95.40
2018-01-08T07:39:57.987Z,95.69
2018-01-08T07:41:51.250Z,95.78
2018-01-08T07:42:51.157Z,95.69
2018-01-08T07:44:44.405Z,95.97
2018-01-08T07:45:44.331Z,94.93
2018-01-08T07:47:37.596Z,96.35
2018-01-08T07:48:37.501Z,95.31
2018-01-08T07:50:30.751Z,95.97
2018-01-08T07:51:30.671Z,95.21
2018-01-08T07:53:24.052Z,95.50
2018-01-08T07:54:23.854Z,95.88
2018-01-08T07:56:17.099Z,95.88
2018-01-08T07:57:17.024Z,95.50
2018-01-08T07:59:10.405Z,95.40
2018-01-08T08:00:10.194Z,94.93
2018-01-08T08:02:03.514Z,95.12
2018-01-08T08:03:03.364Z,95.97
2018-01-08T08:04:56.724Z,95.40
2018-01-08T08:05:56.543Z,95.40
2018-01-08T08:07:49.917Z,95.88
2018-01-08T08:08:49.710Z,95.69
2018-01-08T08:10:42.955Z,95.59
2018-01-08T08:11:42.886Z,95.59
2018-01-08T08:13:36.261Z,94.93
2018-01-08T08:14:36.056Z,95.88
2018-01-08T08:16:29.375Z,95.59
2018-01-08T08:17:29.298Z,95.59
2018-01-08T08:19:22.562Z,95.21
2018-01-08T08:20:22.474Z,95.03
2018-01-08T08:22:15.739Z,95.21
2018-01-08T08:23:15.642Z,95.31
2018-01-08T08:25:09.003Z,94.65
2018-01-08T08:26:08.853Z,95.40
2018-01-08T08:28:02.080Z,94.93
2018-01-08T08:29:01.987Z,94.46
2018-01-08T08:30:55.344Z,94.18
2018-01-08T08:31:55.164Z,93.56
2018-01-08T08:33:48.425Z,92.05
2018-01-08T08:34:48.333Z,91.39
2018-01-08T08:36:41.582Z,89.59
2018-01-08T08:37:41.499Z,89.69
2018-01-08T08:39:34.883Z,90.25
2018-01-08T08:40:34.676Z,90.44
2018-01-08T08:42:28.048Z,90.63
2018-01-08T08:43:27.846Z,91.48
2018-01-08T08:45:21.107Z,91.86
2018-01-08T08:46:21.033Z,92.14
2018-01-08T08:48:14.309Z,92.43
2018-01-08T08:49:14.214Z,92.71
2018-01-08T08:51:07.576Z,92.90
2018-01-08T08:52:07.388Z,93.18
2018-01-08T08:54:00.656Z,93.28
2018-01-08T08:55:00.561Z,92.61
2018-01-08T08:56:53.815Z,92.14
2018-01-08T08:57:53.742Z,92.43
2018-01-08T08:59:47.120Z,93.18
2018-01-08T09:00:46.904Z,93.18
2018-01-08T09:02:40.288Z,92.71
2018-01-08T09:03:40.090Z,92.14
2018-01-08T09:05:33.341Z,92.05
2018-01-08T09:06:33.264Z,92.43
2018-01-08T09:08:26.645Z,91.48
2018-01-08T09:09:26.439Z,90.72
2018-01-08T09:11:19.686Z,89.82
2018-01-08T09:12:19.613Z,88.59
2018-01-08T09:14:12.992Z,88.40
2018-01-08T09:15:12.785Z,87.74
2018-01-08T09:17:06.154Z,87.55
2018-01-08T09:18:05.961Z,86.98
2018-01-08T09:19:59.224Z,88.21
2018-01-08T09:20:59.132Z,88.55
2018-01-08T09:22:52.398Z,88.59
2018-01-08T09:23:52.307Z,88.12
2018-01-08T09:25:45.669Z,88.97
2018-01-08T09:26:45.481Z,88.49
2018-01-08T09:28:38.749Z,86.79
2018-01-08T09:29:38.656Z,86.98
2018-01-08T09:31:32.019Z,87.84
2018-01-08T09:32:31.832Z,88.40
2018-01-08T09:34:25.102Z,88.83
2018-01-08T09:35:25.008Z,88.83
2018-01-08T09:37:18.368Z,88.68
2018-01-08T09:38:18.188Z,88.40
2018-01-08T09:40:11.456Z,87.27
2018-01-08T09:41:11.364Z,87.17
2018-01-08T09:43:04.650Z,86.79
2018-01-08T09:44:04.538Z,86.89
2018-01-08T09:45:57.791Z,86.22
2018-01-08T09:46:57.717Z,85.28
2018-01-08T09:48:51.107Z,85.66
2018-01-08T09:49:50.897Z,85.19
2018-01-08T09:51:44.259Z,84.09
2018-01-08T09:52:44.073Z,83.71
2018-01-08T09:54:37.396Z,84.47
2018-01-08T09:55:37.303Z,83.90
2018-01-08T09:57:30.595Z,83.14
2018-01-08T09:58:30.520Z,83.05
2018-01-08T10:00:23.902Z,83.33
2018-01-08T10:01:23.690Z,82.86
2018-01-08T10:03:17.071Z,83.81
2018-01-08T10:04:16.872Z,83.52
2018-01-08T10:06:10.234Z,83.05
2018-01-08T10:07:10.056Z,83.33
2018-01-08T10:09:03.407Z,84.38
2018-01-08T10:10:03.303Z,83.81
2018-01-08T10:11:56.667Z,83.90
2018-01-08T10:12:56.485Z,83.71
2018-01-08T10:14:49.755Z,83.90
2018-01-08T10:15:49.662Z,83.14
2018-01-08T10:17:42.916Z,83.81
2018-01-08T10:18:42.841Z,84.09
2018-01-08T10:20:36.113Z,82.48
2018-01-08T10:21:36.024Z,82.10
2018-01-08T10:23:29.403Z,83.14
2018-01-08T10:24:29.309Z,83.05
2018-01-08T10:26:22.668Z,83.71
2018-01-08T10:27:22.487Z,83.81
2018-01-08T10:29:15.755Z,83.76
2018-01-08T10:30:15.667Z,83.43
2018-01-08T10:32:08.956Z,82.95
2018-01-08T10:33:08.849Z,83.24
2018-01-08T10:35:03.228Z,83.33
2018-01-08T10:36:03.025Z,83.33
2018-01-08T10:37:56.296Z,82.57
2018-01-08T10:38:56.201Z,82.76
2018-01-08T10:40:50.479Z,82.86
2018-01-08T10:41:50.386Z,82.01
2018-01-08T10:43:43.767Z,81.92
2018-01-08T10:44:43.565Z,82.10
2018-01-08T10:46:36.817Z,81.20
2018-01-08T10:47:36.742Z,81.20
2018-01-08T10:49:30.017Z,80.72
2018-01-08T10:50:29.924Z,80.77
2018-01-08T10:52:23.180Z,81.20
2018-01-08T10:53:23.107Z,80.91
2018-01-08T10:55:16.383Z,80.63
2018-01-08T10:56:16.286Z,80.34
2018-01-08T10:58:09.544Z,79.77
2018-01-08T10:59:09.469Z,79.39
2018-01-08T11:01:02.756Z,80.25
2018-01-08T11:02:02.661Z,80.53
2018-01-08T11:03:55.923Z,80.06
2018-01-08T11:04:55.832Z,81.01
2018-01-08T11:06:49.084Z,80.58
2018-01-08T11:07:49.015Z,80.44
2018-01-08T11:09:42.398Z,80.06
2018-01-08T11:10:42.184Z,80.72
2018-01-08T11:12:35.547Z,80.63
2018-01-08T11:13:35.363Z,81.15
2018-01-08T11:15:28.744Z,80.68
2018-01-08T11:16:28.540Z,81.15
2018-01-08T11:18:21.801Z,81.57
2018-01-08T11:19:21.723Z,80.96
2018-01-08T11:21:14.998Z,80.82
2018-01-08T11:22:14.900Z,80.30
2018-01-08T11:24:08.179Z,81.48
2018-01-08T11:25:08.089Z,80.82
2018-01-08T11:27:01.452Z,80.34
2018-01-08T11:28:01.307Z,80.06
2018-01-08T11:29:54.567Z,79.68
2018-01-08T11:30:54.476Z,79.96
2018-01-08T11:32:47.718Z,80.15
2018-01-08T11:33:47.643Z,79.58
2018-01-08T11:35:41.027Z,79.02
2018-01-08T11:36:40.853Z,78.64
2018-01-08T11:38:34.189Z,79.21
2018-01-08T11:39:34.005Z,78.83
2018-01-08T11:41:27.274Z,78.35
2018-01-08T11:42:27.189Z,78.35
2018-01-08T11:44:20.460Z,78.64
2018-01-08T11:45:20.367Z,78.64
2018-01-08T11:47:13.645Z,78.35
2018-01-08T11:48:13.552Z,78.35
2018-01-08T11:50:06.931Z,78.26
2018-01-08T11:51:06.730Z,78.49
2018-01-08T11:53:00.101Z,78.16
2018-01-08T11:53:59.909Z,78.16
2018-01-08T11:55:53.287Z,77.83
2018-01-08T11:56:53.090Z,77.73
2018-01-08T11:58:46.350Z,77.54
2018-01-08T11:59:46.271Z,77.73
2018-01-08T12:01:39.654Z,77.92
2018-01-08T12:02:39.451Z,77.83
2018-01-08T12:04:32.756Z,77.64
2018-01-08T12:05:32.625Z,77.45
2018-01-08T12:07:26.010Z,77.35
2018-01-08T12:08:25.810Z,77.06
2018-01-08T12:10:19.071Z,77.35
2018-01-08T12:11:18.983Z,77.25
2018-01-08T12:13:12.346Z,77.45
2018-01-08T12:14:12.152Z,77.35
2018-01-08T12:16:05.533Z,76.97
2018-01-08T12:17:05.331Z,77.25
2018-01-08T12:18:58.584Z,77.06
2018-01-08T12:19:58.512Z,76.87
2018-01-08T12:21:51.795Z,76.97
2018-01-08T12:22:51.698Z,76.87
2018-01-08T12:24:44.961Z,77.25
2018-01-08T12:25:44.871Z,76.97
2018-01-08T12:27:38.237Z,76.97
2018-01-08T12:28:38.052Z,76.78
2018-01-08T12:30:31.409Z,77.35
2018-01-08T12:31:31.307Z,76.78
2018-01-08T12:33:24.672Z,77.35
2018-01-08T12:34:24.489Z,76.59
2018-01-08T12:36:17.760Z,76.59
2018-01-08T12:37:17.672Z,76.87
2018-01-08T12:39:11.034Z,76.97
2018-01-08T12:40:10.853Z,77.35
2018-01-08T12:42:04.150Z,76.78
2018-01-08T12:43:04.033Z,76.97
2018-01-08T12:44:57.396Z,76.40
2018-01-08T12:45:57.309Z,76.87
2018-01-08T12:47:50.560Z,76.50
2018-01-08T12:48:50.486Z,76.78
2018-01-08T12:50:43.781Z,76.40
2018-01-08T12:51:43.694Z,76.40
2018-01-08T12:53:37.054Z,76.12
2018-01-08T12:54:36.876Z,76.12
2018-01-08T12:56:30.257Z,76.31
2018-01-08T12:57:30.056Z,75.87
2018-01-08T12:59:23.420Z,75.96
2018-01-08T13:00:23.227Z,75.96
2018-01-08T13:02:16.612Z,76.06
2018-01-08T13:03:16.396Z,75.68
2018-01-08T13:05:09.648Z,75.31
2018-01-08T13:06:09.577Z,75.31
2018-01-08T13:08:02.355Z,74.92
2018-01-08T13:09:02.260Z,75.11
2018-01-08T13:10:55.622Z,75.11
2018-01-08T13:11:55.441Z,74.64
2018-01-08T13:13:48.717Z,74.64
2018-01-08T13:14:48.622Z,74.73
2018-01-08T13:16:41.908Z,74.92
2018-01-08T13:17:41.836Z,74.92
2018-01-08T13:19:35.097Z,75.40
2018-01-08T13:20:35.039Z,75.21
2018-01-08T13:22:28.259Z,75.31
2018-01-08T13:23:28.188Z,74.64
2018-01-08T13:25:21.569Z,74.54
2018-01-08T13:26:21.359Z,74.54
2018-01-08T13:28:14.625Z,74.64
2018-01-08T13:29:14.552Z,74.45
2018-01-08T13:31:07.825Z,74.35
2018-01-08T13:32:07.734Z,74.64
2018-01-08T13:34:00.998Z,73.88
2018-01-08T13:35:00.926Z,73.79
2018-01-08T13:36:54.216Z,73.97
2018-01-08T13:37:54.118Z,73.88
2018-01-08T13:39:47.512Z,73.79
2018-01-08T13:40:47.371Z,73.60
2018-01-08T13:42:40.562Z,73.88
2018-01-08T13:43:40.488Z,73.31
2018-01-08T13:45:33.869Z,73.79
2018-01-08T13:46:33.669Z,73.79
2018-01-08T13:48:26.921Z,73.88
2018-01-08T13:49:26.850Z,73.50
2018-01-08T13:51:20.142Z,73.50
2018-01-08T13:52:20.033Z,73.41
2018-01-08T13:54:13.379Z,73.69
2018-01-08T13:55:13.307Z,73.31
2018-01-08T13:57:06.574Z,73.41
2018-01-08T13:58:06.486Z,73.60
2018-01-08T13:59:59.857Z,73.12
2018-01-08T14:00:59.655Z,73.12
2018-01-08T14:02:53.043Z,72.93
2018-01-08T14:03:52.837Z,72.84
2018-01-08T14:05:46.224Z,72.84
2018-01-08T14:06:46.019Z,72.84
2018-01-08T14:08:39.273Z,72.84
2018-01-08T14:09:39.203Z,72.64
2018-01-08T14:11:32.462Z,72.45
2018-01-08T14:12:32.373Z,72.36
2018-01-08T14:14:25.619Z,72.64
2018-01-08T14:15:25.538Z,72.74
2018-01-08T14:17:18.923Z,72.64
2018-01-08T14:18:18.710Z,72.84
2018-01-08T14:20:11.997Z,72.45
2018-01-08T14:21:11.924Z,72.45
2018-01-08T14:23:05.313Z,72.23
2018-01-08T14:24:05.104Z,72.33
2018-01-08T14:25:58.483Z,72.14
2018-01-08T14:26:58.285Z,71.95
2018-01-08T14:28:51.536Z,71.85
2018-01-08T14:29:51.464Z,71.85
2018-01-08T14:31:45.858Z,72.33
2018-01-08T14:32:45.639Z,71.95
2018-01-08T14:34:39.001Z,72.33
2018-01-08T14:35:38.817Z,72.52
2018-01-08T14:37:32.200Z,72.80
2018-01-08T14:38:32.044Z,73.08
2018-01-08T14:40:25.239Z,72.89
2018-01-08T14:41:25.168Z,73.08
2018-01-08T14:43:18.552Z,73.27
2018-01-08T14:44:18.336Z,73.46
2018-01-08T14:46:11.716Z,74.22
2018-01-08T14:47:11.516Z,74.69
2018-01-08T14:49:04.878Z,74.60
2018-01-08T14:50:04.702Z,74.69
2018-01-08T14:51:58.087Z,74.79
2018-01-08T14:52:57.881Z,75.17
2018-01-08T14:54:51.268Z,75.26
2018-01-08T14:55:51.064Z,75.07
2018-01-08T14:57:45.380Z,76.12
2018-01-08T14:58:45.305Z,75.60
2018-01-08T15:00:38.577Z,75.89
2018-01-08T15:01:38.485Z,75.98
2018-01-08T15:03:31.873Z,76.27
2018-01-08T15:04:31.662Z,76.36
2018-01-08T15:06:25.048Z,76.55
2018-01-08T15:07:24.833Z,77.03
2018-01-08T15:09:18.084Z,77.03
2018-01-08T15:10:18.026Z,77.40
2018-01-08T15:12:11.283Z,77.31
2018-01-08T15:13:11.192Z,76.65
2018-01-08T15:15:04.559Z,77.40
2018-01-08T15:16:04.371Z,77.69
2018-01-08T15:17:57.652Z,77.31
2018-01-08T15:18:57.554Z,77.59
2018-01-08T15:20:50.916Z,76.74
2018-01-08T15:21:50.733Z,77.78
2018-01-08T15:23:44.003Z,77.50
2018-01-08T15:24:43.911Z,77.22
2018-01-08T15:26:37.178Z,76.61
2018-01-08T15:27:37.089Z,77.03
2018-01-08T15:29:30.453Z,77.22
2018-01-08T15:30:30.269Z,77.40
2018-01-08T15:32:23.541Z,77.50
2018-01-08T15:33:23.450Z,77.40
2018-01-08T15:35:16.698Z,77.37
2018-01-08T15:36:16.629Z,77.40
2018-01-08T15:38:09.899Z,77.37
2018-01-08T15:39:09.808Z,77.46
2018-01-08T15:41:03.060Z,78.13
2018-01-08T15:42:02.992Z,77.56
2018-01-08T15:43:56.258Z,78.03
2018-01-08T15:44:56.165Z,78.22
2018-01-08T15:46:49.435Z,78.13
2018-01-08T15:47:49.344Z,78.31
2018-01-08T15:49:42.596Z,77.94
2018-01-08T15:50:42.524Z,78.03
2018-01-08T15:52:35.794Z,78.22
2018-01-08T15:53:35.706Z,78.22
2018-01-08T15:55:28.949Z,78.31
2018-01-08T15:56:28.874Z,78.41
2018-01-08T15:58:23.136Z,78.50
2018-01-08T15:59:23.043Z,78.69
2018-01-08T16:01:16.321Z,79.17
2018-01-08T16:02:16.233Z,78.88
2018-01-08T16:04:09.498Z,79.55
2018-01-08T16:05:09.408Z,79.26
2018-01-08T16:07:02.663Z,79.55
2018-01-08T16:08:02.583Z,79.74
2018-01-08T16:09:55.814Z,79.55
2018-01-08T16:10:55.740Z,79.64
2018-01-08T16:12:49.009Z,79.26
2018-01-08T16:13:48.975Z,79.93
2018-01-08T16:15:42.167Z,79.55
2018-01-08T16:16:42.095Z,79.74
2018-01-08T16:18:35.394Z,79.74
2018-01-08T16:19:35.302Z,79.45
2018-01-08T16:21:28.665Z,79.17
2018-01-08T16:22:28.486Z,79.36
2018-01-08T16:24:21.751Z,79.55
2018-01-08T16:25:21.657Z,79.74
2018-01-08T16:27:14.926Z,79.55
2018-01-08T16:28:14.836Z,79.45
2018-01-08T16:30:08.081Z,79.64
2018-01-08T16:31:08.007Z,79.64
2018-01-08T16:33:01.273Z,79.98
2018-01-08T16:34:01.186Z,80.30
2018-01-08T16:35:55.423Z,80.21
2018-01-08T16:36:55.348Z,80.11
2018-01-08T16:38:48.732Z,80.02
2018-01-08T16:39:48.529Z,80.02
2018-01-08T16:41:41.782Z,79.88
2018-01-08T16:42:41.707Z,80.21
2018-01-08T16:44:34.978Z,79.98
2018-01-08T16:45:34.883Z,79.98
2018-01-08T16:47:28.151Z,80.11
2018-01-08T16:48:28.059Z,79.98
2018-01-08T16:50:21.422Z,80.02
2018-01-08T16:51:21.304Z,80.21
2018-01-08T16:53:14.578Z,80.64
2018-01-08T16:54:14.483Z,80.55
2018-01-08T16:56:07.730Z,80.36
2018-01-08T16:57:07.659Z,80.74
2018-01-08T16:59:00.925Z,80.74
2018-01-08T17:00:00.830Z,80.36
2018-01-08T17:01:54.082Z,80.36
2018-01-08T17:02:54.010Z,81.02
2018-01-08T17:04:47.281Z,80.93
2018-01-08T17:05:47.189Z,81.12
2018-01-08T17:07:40.458Z,80.93
2018-01-08T17:08:40.365Z,81.02
2018-01-08T17:10:34.728Z,81.30
2018-01-08T17:11:34.541Z,81.12
2018-01-08T17:13:27.809Z,81.59
2018-01-08T17:14:27.744Z,81.68
2018-01-08T17:16:20.964Z,81.96
2018-01-08T17:17:20.893Z,81.77
2018-01-08T17:19:14.273Z,81.87
2018-01-08T17:20:14.067Z,81.77
2018-01-08T17:22:07.400Z,81.96
2018-01-08T17:23:07.323Z,82.25
2018-01-08T17:25:00.720Z,82.72
2018-01-08T17:26:00.502Z,82.72
2018-01-08T17:27:53.768Z,82.82
2018-01-08T17:28:53.680Z,83.29
2018-01-08T17:30:46.926Z,82.91
2018-01-08T17:31:46.851Z,83.20
2018-01-08T17:33:40.229Z,83.01
2018-01-08T17:34:40.026Z,83.39
2018-01-08T17:36:33.376Z,83.10
2018-01-08T17:37:33.301Z,83.01
2018-01-08T17:39:26.677Z,83.86
2018-01-08T17:40:26.465Z,83.58
2018-01-08T17:42:19.714Z,83.86
2018-01-08T17:43:19.641Z,83.86
2018-01-08T17:45:12.907Z,84.14
2018-01-08T17:46:12.817Z,83.86
2018-01-08T17:48:06.086Z,84.05
2018-01-08T17:49:05.990Z,84.05
2018-01-08T17:50:59.350Z,84.05
2018-01-08T17:51:59.164Z,84.42
2018-01-08T17:53:52.434Z,84.71
2018-01-08T17:54:52.339Z,84.42
2018-01-08T17:56:45.586Z,84.33
2018-01-08T17:57:45.514Z,84.42
2018-01-08T17:59:38.773Z,84.90
2018-01-08T18:00:38.682Z,85.09
2018-01-08T18:02:31.933Z,85.00
2018-01-08T18:03:31.859Z,85.19
2018-01-08T18:05:25.126Z,84.81
2018-01-08T18:06:25.031Z,85.00
2018-01-08T18:08:18.282Z,85.00
2018-01-08T18:09:18.208Z,85.47
2018-01-08T18:11:11.472Z,85.66
2018-01-08T18:12:11.381Z,85.09
2018-01-08T18:14:04.677Z,85.38
2018-01-08T18:15:04.563Z,85.28
2018-01-08T18:16:57.806Z,85.94
2018-01-08T18:17:57.745Z,85.85
2018-01-08T18:19:50.996Z,85.57
2018-01-08T18:20:50.905Z,85.66
2018-01-08T18:22:44.154Z,85.75
2018-01-08T18:23:44.080Z,85.75
2018-01-08T18:25:37.458Z,86.13
2018-01-08T18:26:37.325Z,86.32
2018-01-08T18:28:31.550Z,86.04
2018-01-08T18:29:31.470Z,86.41
2018-01-08T18:31:24.742Z,86.70
2018-01-08T18:32:24.661Z,86.79
2018-01-08T18:34:17.896Z,86.98
2018-01-08T18:35:17.823Z,87.17